sensor_id;sensor_type;location;lat;lon;timestamp;P1;durP1;ratioP1;P2;durP2;ratioP2
66189;SDS011;52992;52.084;5.412;2023-04-25T00:01:54;34.60;;;31.93;;
66189;SDS011;52992;52.084;5.412;2023-04-25T00:04:20;34.33;;;32.50;;
66189;SDS011;52992;52.084;5.412;2023-04-25T00:06:48;33.83;;;31.80;;
66189;SDS011;52992;52.084;5.412;2023-04-25T00:09:15;36.83;;;33.97;;
66189;SDS011;52992;52.084;5.412;2023-04-25T00:11:42;37.37;;;34.70;;
66189;SDS011;52992;52.084;5.412;2023-04-25T00:14:08;35.23;;;33.03;;
66189;SDS011;52992;52.084;5.412;2023-04-25T00:16:36;36.47;;;34.53;;
66189;SDS011;52992;52.084;5.412;2023-04-25T00:19:03;36.77;;;34.70;;
66189;SDS011;52992;52.084;5.412;2023-04-25T00:21:30;37.17;;;35.17;;
66189;SDS011;52992;52.084;5.412;2023-04-25T00:23:57;37.60;;;35.23;;
66189;SDS011;52992;52.084;5.412;2023-04-25T00:26:25;37.20;;;34.70;;
66189;SDS011;52992;52.084;5.412;2023-04-25T00:28:52;37.10;;;34.77;;
66189;SDS011;52992;52.084;5.412;2023-04-25T00:31:19;37.47;;;34.43;;
66189;SDS011;52992;52.084;5.412;2023-04-25T00:33:47;37.07;;;34.50;;
66189;SDS011;52992;52.084;5.412;2023-04-25T00:36:14;36.43;;;33.73;;
66189;SDS011;52992;52.084;5.412;2023-04-25T00:38:42;41.23;;;37.73;;
66189;SDS011;52992;52.084;5.412;2023-04-25T00:41:08;37.60;;;35.00;;
66189;SDS011;52992;52.084;5.412;2023-04-25T00:43:36;38.23;;;35.90;;
66189;SDS011;52992;52.084;5.412;2023-04-25T00:46:03;35.47;;;33.27;;
66189;SDS011;52992;52.084;5.412;2023-04-25T00:48:30;36.00;;;33.60;;
66189;SDS011;52992;52.084;5.412;2023-04-25T00:50:58;35.93;;;33.50;;
66189;SDS011;52992;52.084;5.412;2023-04-25T00:53:26;34.00;;;31.90;;
66189;SDS011;52992;52.084;5.412;2023-04-25T00:55:54;34.67;;;31.90;;
66189;SDS011;52992;52.084;5.412;2023-04-25T00:58:22;35.43;;;32.47;;
66189;SDS011;52992;52.084;5.412;2023-04-25T01:00:49;34.80;;;32.67;;
66189;SDS011;52992;52.084;5.412;2023-04-25T01:03:20;35.30;;;32.23;;
66189;SDS011;52992;52.084;5.412;2023-04-25T01:05:48;35.97;;;34.00;;
66189;SDS011;52992;52.084;5.412;2023-04-25T01:08:16;34.80;;;32.40;;
66189;SDS011;52992;52.084;5.412;2023-04-25T01:10:43;34.57;;;32.67;;
66189;SDS011;52992;52.084;5.412;2023-04-25T01:13:10;32.97;;;30.93;;
66189;SDS011;52992;52.084;5.412;2023-04-25T01:15:37;32.33;;;30.27;;
66189;SDS011;52992;52.084;5.412;2023-04-25T01:18:05;34.90;;;32.80;;
66189;SDS011;52992;52.084;5.412;2023-04-25T01:20:33;34.60;;;32.30;;
66189;SDS011;52992;52.084;5.412;2023-04-25T01:23:00;33.63;;;30.97;;
66189;SDS011;52992;52.084;5.412;2023-04-25T01:25:32;33.83;;;31.20;;
66189;SDS011;52992;52.084;5.412;2023-04-25T01:27:59;34.67;;;32.57;;
66189;SDS011;52992;52.084;5.412;2023-04-25T01:30:27;35.03;;;32.73;;
66189;SDS011;52992;52.084;5.412;2023-04-25T01:32:55;32.07;;;29.90;;
66189;SDS011;52992;52.084;5.412;2023-04-25T01:35:23;33.63;;;31.43;;
66189;SDS011;52992;52.084;5.412;2023-04-25T01:37:52;31.80;;;29.80;;
66189;SDS011;52992;52.084;5.412;2023-04-25T01:40:20;32.33;;;30.03;;
66189;SDS011;52992;52.084;5.412;2023-04-25T01:42:49;33.00;;;30.37;;
66189;SDS011;52992;52.084;5.412;2023-04-25T01:45:17;33.07;;;30.93;;
66189;SDS011;52992;52.084;5.412;2023-04-25T01:47:44;33.40;;;31.50;;
66189;SDS011;52992;52.084;5.412;2023-04-25T01:50:16;33.53;;;31.17;;
66189;SDS011;52992;52.084;5.412;2023-04-25T01:52:44;33.63;;;31.53;;
66189;SDS011;52992;52.084;5.412;2023-04-25T01:55:12;36.10;;;33.17;;
66189;SDS011;52992;52.084;5.412;2023-04-25T01:57:48;36.73;;;34.00;;
66189;SDS011;52992;52.084;5.412;2023-04-25T02:00:17;35.07;;;33.03;;
66189;SDS011;52992;52.084;5.412;2023-04-25T02:02:45;32.03;;;30.03;;
66189;SDS011;52992;52.084;5.412;2023-04-25T02:05:21;33.50;;;31.30;;
66189;SDS011;52992;52.084;5.412;2023-04-25T02:07:48;33.57;;;30.77;;
66189;SDS011;52992;52.084;5.412;2023-04-25T02:10:15;31.37;;;29.13;;
66189;SDS011;52992;52.084;5.412;2023-04-25T02:13:01;31.90;;;29.50;;
66189;SDS011;52992;52.084;5.412;2023-04-25T02:15:49;32.57;;;30.53;;
66189;SDS011;52992;52.084;5.412;2023-04-25T02:18:18;33.67;;;31.57;;
66189;SDS011;52992;52.084;5.412;2023-04-25T02:20:46;33.43;;;31.10;;
66189;SDS011;52992;52.084;5.412;2023-04-25T02:23:13;33.90;;;31.17;;
66189;SDS011;52992;52.084;5.412;2023-04-25T02:25:41;36.67;;;34.70;;
66189;SDS011;52992;52.084;5.412;2023-04-25T02:28:08;35.60;;;33.23;;
66189;SDS011;52992;52.084;5.412;2023-04-25T02:30:36;36.17;;;33.80;;
66189;SDS011;52992;52.084;5.412;2023-04-25T02:33:04;35.23;;;33.43;;
66189;SDS011;52992;52.084;5.412;2023-04-25T02:35:31;35.10;;;32.97;;
66189;SDS011;52992;52.084;5.412;2023-04-25T02:37:58;33.60;;;31.27;;
66189;SDS011;52992;52.084;5.412;2023-04-25T02:40:25;34.63;;;32.30;;
66189;SDS011;52992;52.084;5.412;2023-04-25T02:42:53;34.63;;;31.93;;
66189;SDS011;52992;52.084;5.412;2023-04-25T02:45:20;35.17;;;32.47;;
66189;SDS011;52992;52.084;5.412;2023-04-25T02:47:47;35.57;;;33.10;;
66189;SDS011;52992;52.084;5.412;2023-04-25T02:50:14;38.00;;;35.27;;
66189;SDS011;52992;52.084;5.412;2023-04-25T02:52:41;37.40;;;34.40;;
66189;SDS011;52992;52.084;5.412;2023-04-25T02:55:13;35.93;;;33.70;;
66189;SDS011;52992;52.084;5.412;2023-04-25T02:57:41;37.40;;;35.40;;
66189;SDS011;52992;52.084;5.412;2023-04-25T03:00:11;35.67;;;33.47;;
66189;SDS011;52992;52.084;5.412;2023-04-25T03:02:40;36.43;;;34.23;;
66189;SDS011;52992;52.084;5.412;2023-04-25T03:05:07;38.60;;;35.70;;
66189;SDS011;52992;52.084;5.412;2023-04-25T03:07:36;36.87;;;34.53;;
66189;SDS011;52992;52.084;5.412;2023-04-25T03:10:02;35.57;;;33.13;;
66189;SDS011;52992;52.084;5.412;2023-04-25T03:12:32;34.37;;;32.10;;
66189;SDS011;52992;52.084;5.412;2023-04-25T03:14:58;34.97;;;32.83;;
66189;SDS011;52992;52.084;5.412;2023-04-25T03:17:26;35.33;;;33.30;;
66189;SDS011;52992;52.084;5.412;2023-04-25T03:19:53;34.10;;;31.90;;
66189;SDS011;52992;52.084;5.412;2023-04-25T03:22:20;35.37;;;33.13;;
66189;SDS011;52992;52.084;5.412;2023-04-25T03:24:48;34.90;;;32.50;;
66189;SDS011;52992;52.084;5.412;2023-04-25T03:27:14;36.77;;;33.43;;
66189;SDS011;52992;52.084;5.412;2023-04-25T03:29:41;34.87;;;32.33;;
66189;SDS011;52992;52.084;5.412;2023-04-25T03:32:09;34.47;;;32.20;;
66189;SDS011;52992;52.084;5.412;2023-04-25T03:34:36;35.27;;;33.37;;
66189;SDS011;52992;52.084;5.412;2023-04-25T03:37:03;36.03;;;33.30;;
66189;SDS011;52992;52.084;5.412;2023-04-25T03:39:34;35.47;;;33.37;;
66189;SDS011;52992;52.084;5.412;2023-04-25T03:42:01;39.27;;;36.50;;
66189;SDS011;52992;52.084;5.412;2023-04-25T03:44:29;36.47;;;33.93;;
66189;SDS011;52992;52.084;5.412;2023-04-25T03:46:56;36.97;;;33.93;;
66189;SDS011;52992;52.084;5.412;2023-04-25T03:49:24;36.77;;;34.37;;
66189;SDS011;52992;52.084;5.412;2023-04-25T03:52:00;35.03;;;32.60;;
66189;SDS011;52992;52.084;5.412;2023-04-25T03:54:32;34.90;;;32.80;;
66189;SDS011;52992;52.084;5.412;2023-04-25T03:57:05;35.20;;;32.97;;
66189;SDS011;52992;52.084;5.412;2023-04-25T03:59:36;36.40;;;34.23;;
66189;SDS011;52992;52.084;5.412;2023-04-25T04:02:02;33.93;;;31.87;;
66189;SDS011;52992;52.084;5.412;2023-04-25T04:04:31;34.67;;;32.47;;
66189;SDS011;52992;52.084;5.412;2023-04-25T04:06:59;34.40;;;31.67;;
66189;SDS011;52992;52.084;5.412;2023-04-25T04:09:30;33.10;;;31.27;;
66189;SDS011;52992;52.084;5.412;2023-04-25T04:11:59;32.93;;;30.60;;
66189;SDS011;52992;52.084;5.412;2023-04-25T04:14:29;33.07;;;30.70;;
66189;SDS011;52992;52.084;5.412;2023-04-25T04:16:56;33.43;;;31.50;;
66189;SDS011;52992;52.084;5.412;2023-04-25T04:19:25;33.50;;;30.93;;
66189;SDS011;52992;52.084;5.412;2023-04-25T04:22:04;35.10;;;32.73;;
66189;SDS011;52992;52.084;5.412;2023-04-25T04:24:31;35.37;;;32.90;;
66189;SDS011;52992;52.084;5.412;2023-04-25T04:27:02;35.43;;;32.90;;
66189;SDS011;52992;52.084;5.412;2023-04-25T04:29:40;35.57;;;33.47;;
66189;SDS011;52992;52.084;5.412;2023-04-25T04:32:27;35.67;;;33.90;;
66189;SDS011;52992;52.084;5.412;2023-04-25T04:34:56;34.27;;;32.03;;
66189;SDS011;52992;52.084;5.412;2023-04-25T04:37:24;34.10;;;31.93;;
66189;SDS011;52992;52.084;5.412;2023-04-25T04:39:51;34.97;;;32.73;;
66189;SDS011;52992;52.084;5.412;2023-04-25T04:42:30;34.97;;;33.17;;
66189;SDS011;52992;52.084;5.412;2023-04-25T04:44:57;35.13;;;32.83;;
66189;SDS011;52992;52.084;5.412;2023-04-25T04:47:43;34.50;;;32.27;;
66189;SDS011;52992;52.084;5.412;2023-04-25T04:50:16;33.07;;;31.43;;
66189;SDS011;52992;52.084;5.412;2023-04-25T04:53:03;32.27;;;30.37;;
66189;SDS011;52992;52.084;5.412;2023-04-25T04:55:49;33.57;;;31.83;;
66189;SDS011;52992;52.084;5.412;2023-04-25T04:58:35;33.67;;;31.23;;
66189;SDS011;52992;52.084;5.412;2023-04-25T05:01:20;34.77;;;32.17;;
66189;SDS011;52992;52.084;5.412;2023-04-25T05:04:14;34.27;;;31.73;;
66189;SDS011;52992;52.084;5.412;2023-04-25T05:06:46;34.50;;;32.27;;
66189;SDS011;52992;52.084;5.412;2023-04-25T05:09:27;33.43;;;31.63;;
66189;SDS011;52992;52.084;5.412;2023-04-25T05:12:08;34.80;;;32.33;;
66189;SDS011;52992;52.084;5.412;2023-04-25T05:14:58;34.33;;;32.53;;
66189;SDS011;52992;52.084;5.412;2023-04-25T05:17:38;32.80;;;30.63;;
66189;SDS011;52992;52.084;5.412;2023-04-25T05:20:34;32.10;;;30.60;;
66189;SDS011;52992;52.084;5.412;2023-04-25T05:23:17;31.90;;;30.10;;
66189;SDS011;52992;52.084;5.412;2023-04-25T05:25:53;32.53;;;30.93;;
66189;SDS011;52992;52.084;5.412;2023-04-25T05:28:55;32.27;;;30.10;;
66189;SDS011;52992;52.084;5.412;2023-04-25T05:31:40;31.20;;;29.77;;
66189;SDS011;52992;52.084;5.412;2023-04-25T05:34:10;31.87;;;29.57;;
66189;SDS011;52992;52.084;5.412;2023-04-25T05:36:55;30.73;;;29.03;;
66189;SDS011;52992;52.084;5.412;2023-04-25T05:39:23;30.17;;;28.47;;
66189;SDS011;52992;52.084;5.412;2023-04-25T05:42:02;32.50;;;30.03;;
66189;SDS011;52992;52.084;5.412;2023-04-25T05:44:45;30.03;;;28.07;;
66189;SDS011;52992;52.084;5.412;2023-04-25T05:47:22;28.90;;;27.50;;
66189;SDS011;52992;52.084;5.412;2023-04-25T05:50:09;29.77;;;28.33;;
66189;SDS011;52992;52.084;5.412;2023-04-25T05:52:47;30.07;;;28.27;;
66189;SDS011;52992;52.084;5.412;2023-04-25T05:55:27;30.93;;;29.13;;
66189;SDS011;52992;52.084;5.412;2023-04-25T05:57:56;29.20;;;27.40;;
66189;SDS011;52992;52.084;5.412;2023-04-25T06:00:24;30.33;;;28.80;;
66189;SDS011;52992;52.084;5.412;2023-04-25T06:02:51;31.27;;;29.53;;
66189;SDS011;52992;52.084;5.412;2023-04-25T06:05:18;30.00;;;28.40;;
66189;SDS011;52992;52.084;5.412;2023-04-25T06:07:46;29.23;;;27.67;;
66189;SDS011;52992;52.084;5.412;2023-04-25T06:10:13;28.50;;;26.80;;
66189;SDS011;52992;52.084;5.412;2023-04-25T06:12:41;26.77;;;25.47;;
66189;SDS011;52992;52.084;5.412;2023-04-25T06:15:09;28.00;;;25.97;;
66189;SDS011;52992;52.084;5.412;2023-04-25T06:17:53;27.50;;;25.93;;
66189;SDS011;52992;52.084;5.412;2023-04-25T06:20:21;28.30;;;26.83;;
66189;SDS011;52992;52.084;5.412;2023-04-25T06:22:51;25.33;;;24.00;;
66189;SDS011;52992;52.084;5.412;2023-04-25T06:25:25;27.03;;;25.57;;
66189;SDS011;52992;52.084;5.412;2023-04-25T06:27:53;26.30;;;24.80;;
66189;SDS011;52992;52.084;5.412;2023-04-25T06:30:21;24.80;;;23.37;;
66189;SDS011;52992;52.084;5.412;2023-04-25T06:32:56;25.83;;;24.50;;
66189;SDS011;52992;52.084;5.412;2023-04-25T06:35:23;27.67;;;25.63;;
66189;SDS011;52992;52.084;5.412;2023-04-25T06:37:50;25.70;;;24.17;;
66189;SDS011;52992;52.084;5.412;2023-04-25T06:40:20;26.63;;;24.43;;
66189;SDS011;52992;52.084;5.412;2023-04-25T06:42:47;25.03;;;23.67;;
66189;SDS011;52992;52.084;5.412;2023-04-25T06:45:50;27.03;;;25.73;;
66189;SDS011;52992;52.084;5.412;2023-04-25T06:48:18;27.63;;;25.83;;
66189;SDS011;52992;52.084;5.412;2023-04-25T06:50:46;27.17;;;25.17;;
66189;SDS011;52992;52.084;5.412;2023-04-25T06:53:13;24.27;;;22.87;;
66189;SDS011;52992;52.084;5.412;2023-04-25T06:55:43;21.60;;;19.90;;
66189;SDS011;52992;52.084;5.412;2023-04-25T06:58:18;21.40;;;19.83;;
66189;SDS011;52992;52.084;5.412;2023-04-25T07:01:10;20.00;;;18.60;;
66189;SDS011;52992;52.084;5.412;2023-04-25T07:03:38;19.97;;;18.83;;
66189;SDS011;52992;52.084;5.412;2023-04-25T07:06:11;19.03;;;17.97;;
66189;SDS011;52992;52.084;5.412;2023-04-25T07:08:38;20.67;;;19.57;;
66189;SDS011;52992;52.084;5.412;2023-04-25T07:11:05;21.70;;;20.53;;
66189;SDS011;52992;52.084;5.412;2023-04-25T07:13:32;22.80;;;21.37;;
66189;SDS011;52992;52.084;5.412;2023-04-25T07:15:59;22.00;;;20.17;;
66189;SDS011;52992;52.084;5.412;2023-04-25T07:18:29;23.40;;;21.60;;
66189;SDS011;52992;52.084;5.412;2023-04-25T07:20:56;23.03;;;21.43;;
66189;SDS011;52992;52.084;5.412;2023-04-25T07:23:22;23.23;;;21.63;;
66189;SDS011;52992;52.084;5.412;2023-04-25T07:25:50;24.83;;;23.13;;
66189;SDS011;52992;52.084;5.412;2023-04-25T07:28:20;22.90;;;21.50;;
66189;SDS011;52992;52.084;5.412;2023-04-25T07:30:47;22.60;;;21.07;;
66189;SDS011;52992;52.084;5.412;2023-04-25T07:33:14;19.10;;;17.90;;
66189;SDS011;52992;52.084;5.412;2023-04-25T07:35:41;19.50;;;18.30;;
66189;SDS011;52992;52.084;5.412;2023-04-25T07:38:08;20.40;;;19.00;;
66189;SDS011;52992;52.084;5.412;2023-04-25T07:40:36;18.77;;;17.60;;
66189;SDS011;52992;52.084;5.412;2023-04-25T07:43:06;18.87;;;17.80;;
66189;SDS011;52992;52.084;5.412;2023-04-25T07:45:52;18.67;;;17.70;;
66189;SDS011;52992;52.084;5.412;2023-04-25T07:48:20;18.40;;;17.37;;
66189;SDS011;52992;52.084;5.412;2023-04-25T07:50:50;18.30;;;17.10;;
66189;SDS011;52992;52.084;5.412;2023-04-25T07:53:17;18.47;;;16.93;;
66189;SDS011;52992;52.084;5.412;2023-04-25T07:55:55;18.67;;;17.47;;
66189;SDS011;52992;52.084;5.412;2023-04-25T07:58:22;18.30;;;17.33;;
66189;SDS011;52992;52.084;5.412;2023-04-25T08:00:53;18.40;;;17.40;;
66189;SDS011;52992;52.084;5.412;2023-04-25T08:03:35;18.67;;;17.33;;
66189;SDS011;52992;52.084;5.412;2023-04-25T08:06:07;19.53;;;18.33;;
66189;SDS011;52992;52.084;5.412;2023-04-25T08:08:43;18.93;;;17.70;;
66189;SDS011;52992;52.084;5.412;2023-04-25T08:11:16;19.37;;;18.27;;
66189;SDS011;52992;52.084;5.412;2023-04-25T08:13:43;18.53;;;17.57;;
66189;SDS011;52992;52.084;5.412;2023-04-25T08:16:11;18.50;;;17.37;;
66189;SDS011;52992;52.084;5.412;2023-04-25T08:18:37;19.10;;;18.10;;
66189;SDS011;52992;52.084;5.412;2023-04-25T08:21:04;17.10;;;16.20;;
66189;SDS011;52992;52.084;5.412;2023-04-25T08:23:33;18.37;;;17.30;;
66189;SDS011;52992;52.084;5.412;2023-04-25T08:26:03;18.47;;;17.30;;
66189;SDS011;52992;52.084;5.412;2023-04-25T08:28:34;18.50;;;17.40;;
66189;SDS011;52992;52.084;5.412;2023-04-25T08:31:01;18.23;;;17.17;;
66189;SDS011;52992;52.084;5.412;2023-04-25T08:33:35;17.63;;;16.53;;
66189;SDS011;52992;52.084;5.412;2023-04-25T08:36:32;17.17;;;16.03;;
66189;SDS011;52992;52.084;5.412;2023-04-25T08:39:16;16.97;;;16.10;;
66189;SDS011;52992;52.084;5.412;2023-04-25T08:41:59;16.97;;;15.87;;
66189;SDS011;52992;52.084;5.412;2023-04-25T08:44:30;17.80;;;16.63;;
66189;SDS011;52992;52.084;5.412;2023-04-25T08:46:57;16.10;;;15.30;;
66189;SDS011;52992;52.084;5.412;2023-04-25T08:49:27;17.47;;;16.30;;
66189;SDS011;52992;52.084;5.412;2023-04-25T08:51:55;18.53;;;17.43;;
66189;SDS011;52992;52.084;5.412;2023-04-25T08:54:30;19.07;;;18.07;;
66189;SDS011;52992;52.084;5.412;2023-04-25T08:57:02;17.37;;;16.27;;
66189;SDS011;52992;52.084;5.412;2023-04-25T08:59:31;16.20;;;15.60;;
66189;SDS011;52992;52.084;5.412;2023-04-25T09:02:00;15.57;;;14.60;;
66189;SDS011;52992;52.084;5.412;2023-04-25T09:04:30;16.83;;;15.63;;
66189;SDS011;52992;52.084;5.412;2023-04-25T09:06:58;15.37;;;14.43;;
66189;SDS011;52992;52.084;5.412;2023-04-25T09:09:25;17.03;;;14.87;;
66189;SDS011;52992;52.084;5.412;2023-04-25T09:11:52;15.90;;;14.70;;
66189;SDS011;52992;52.084;5.412;2023-04-25T09:14:21;16.60;;;15.50;;
66189;SDS011;52992;52.084;5.412;2023-04-25T09:17:12;16.57;;;15.53;;
66189;SDS011;52992;52.084;5.412;2023-04-25T09:20:12;15.90;;;15.00;;
66189;SDS011;52992;52.084;5.412;2023-04-25T09:22:39;16.67;;;15.63;;
66189;SDS011;52992;52.084;5.412;2023-04-25T09:25:10;16.50;;;15.50;;
66189;SDS011;52992;52.084;5.412;2023-04-25T09:27:52;15.97;;;14.97;;
66189;SDS011;52992;52.084;5.412;2023-04-25T09:30:28;15.03;;;14.00;;
66189;SDS011;52992;52.084;5.412;2023-04-25T09:33:08;15.67;;;14.80;;
66189;SDS011;52992;52.084;5.412;2023-04-25T09:35:40;16.40;;;15.60;;
66189;SDS011;52992;52.084;5.412;2023-04-25T09:38:15;16.33;;;15.40;;
66189;SDS011;52992;52.084;5.412;2023-04-25T09:40:54;15.67;;;14.70;;
66189;SDS011;52992;52.084;5.412;2023-04-25T09:43:36;16.73;;;15.60;;
66189;SDS011;52992;52.084;5.412;2023-04-25T09:46:08;15.30;;;14.50;;
66189;SDS011;52992;52.084;5.412;2023-04-25T09:48:41;15.73;;;14.50;;
66189;SDS011;52992;52.084;5.412;2023-04-25T09:51:21;15.27;;;14.47;;
66189;SDS011;52992;52.084;5.412;2023-04-25T09:53:58;15.67;;;14.70;;
66189;SDS011;52992;52.084;5.412;2023-04-25T09:56:38;16.37;;;15.27;;
66189;SDS011;52992;52.084;5.412;2023-04-25T09:59:06;15.70;;;14.90;;
66189;SDS011;52992;52.084;5.412;2023-04-25T10:01:36;17.17;;;16.03;;
66189;SDS011;52992;52.084;5.412;2023-04-25T10:04:13;17.07;;;15.80;;
66189;SDS011;52992;52.084;5.412;2023-04-25T10:06:55;16.30;;;15.10;;
66189;SDS011;52992;52.084;5.412;2023-04-25T10:09:24;16.80;;;15.80;;
66189;SDS011;52992;52.084;5.412;2023-04-25T10:11:52;15.97;;;15.17;;
66189;SDS011;52992;52.084;5.412;2023-04-25T10:14:20;15.80;;;15.00;;
66189;SDS011;52992;52.084;5.412;2023-04-25T10:16:48;17.27;;;15.97;;
66189;SDS011;52992;52.084;5.412;2023-04-25T10:19:16;17.60;;;16.60;;
66189;SDS011;52992;52.084;5.412;2023-04-25T10:21:46;17.47;;;16.20;;
66189;SDS011;52992;52.084;5.412;2023-04-25T10:24:19;17.43;;;16.43;;
66189;SDS011;52992;52.084;5.412;2023-04-25T10:26:47;16.47;;;15.53;;
66189;SDS011;52992;52.084;5.412;2023-04-25T10:29:21;15.23;;;14.30;;
66189;SDS011;52992;52.084;5.412;2023-04-25T10:31:52;15.77;;;14.87;;
66189;SDS011;52992;52.084;5.412;2023-04-25T10:34:19;16.60;;;15.53;;
66189;SDS011;52992;52.084;5.412;2023-04-25T10:36:51;16.27;;;14.93;;
66189;SDS011;52992;52.084;5.412;2023-04-25T10:39:23;15.63;;;14.50;;
66189;SDS011;52992;52.084;5.412;2023-04-25T10:41:57;15.60;;;14.40;;
66189;SDS011;52992;52.084;5.412;2023-04-25T10:44:28;15.07;;;14.17;;
66189;SDS011;52992;52.084;5.412;2023-04-25T10:46:56;15.70;;;14.70;;
66189;SDS011;52992;52.084;5.412;2023-04-25T10:52:30;15.83;;;14.87;;
66189;SDS011;52992;52.084;5.412;2023-04-25T10:54:59;15.10;;;14.30;;
66189;SDS011;52992;52.084;5.412;2023-04-25T10:57:35;16.13;;;15.03;;
66189;SDS011;52992;52.084;5.412;2023-04-25T11:00:08;14.93;;;13.77;;
66189;SDS011;52992;52.084;5.412;2023-04-25T11:02:38;14.77;;;13.83;;
66189;SDS011;52992;52.084;5.412;2023-04-25T11:05:09;14.97;;;14.17;;
66189;SDS011;52992;52.084;5.412;2023-04-25T11:10:32;17.00;;;15.83;;
66189;SDS011;52992;52.084;5.412;2023-04-25T11:13:01;14.20;;;13.50;;
66189;SDS011;52992;52.084;5.412;2023-04-25T11:15:29;14.90;;;13.90;;
66189;SDS011;52992;52.084;5.412;2023-04-25T11:17:56;15.10;;;14.40;;
66189;SDS011;52992;52.084;5.412;2023-04-25T11:20:25;15.67;;;14.63;;
66189;SDS011;52992;52.084;5.412;2023-04-25T11:22:54;15.93;;;14.60;;
66189;SDS011;52992;52.084;5.412;2023-04-25T11:25:25;15.30;;;14.40;;
66189;SDS011;52992;52.084;5.412;2023-04-25T11:27:52;15.20;;;14.40;;
66189;SDS011;52992;52.084;5.412;2023-04-25T11:30:21;17.30;;;16.30;;
66189;SDS011;52992;52.084;5.412;2023-04-25T11:32:48;17.27;;;16.47;;
66189;SDS011;52992;52.084;5.412;2023-04-25T11:35:16;17.03;;;16.03;;
66189;SDS011;52992;52.084;5.412;2023-04-25T11:37:43;16.17;;;15.37;;
66189;SDS011;52992;52.084;5.412;2023-04-25T11:40:11;17.50;;;16.47;;
66189;SDS011;52992;52.084;5.412;2023-04-25T11:42:47;15.70;;;14.90;;
66189;SDS011;52992;52.084;5.412;2023-04-25T11:45:14;15.80;;;14.90;;
66189;SDS011;52992;52.084;5.412;2023-04-25T11:47:41;16.23;;;15.33;;
66189;SDS011;52992;52.084;5.412;2023-04-25T11:50:08;14.50;;;13.80;;
66189;SDS011;52992;52.084;5.412;2023-04-25T11:52:40;15.50;;;14.17;;
66189;SDS011;52992;52.084;5.412;2023-04-25T11:55:09;15.47;;;14.57;;
66189;SDS011;52992;52.084;5.412;2023-04-25T11:57:40;15.47;;;14.50;;
66189;SDS011;52992;52.084;5.412;2023-04-25T12:00:12;16.33;;;15.30;;
66189;SDS011;52992;52.084;5.412;2023-04-25T12:02:45;15.20;;;14.50;;
66189;SDS011;52992;52.084;5.412;2023-04-25T12:05:14;15.30;;;14.40;;
66189;SDS011;52992;52.084;5.412;2023-04-25T12:08:09;14.67;;;13.77;;
66189;SDS011;52992;52.084;5.412;2023-04-25T12:10:41;15.27;;;14.17;;
66189;SDS011;52992;52.084;5.412;2023-04-25T12:13:22;15.93;;;14.43;;
66189;SDS011;52992;52.084;5.412;2023-04-25T12:15:54;15.33;;;14.60;;
66189;SDS011;52992;52.084;5.412;2023-04-25T12:18:23;14.97;;;14.17;;
66189;SDS011;52992;52.084;5.412;2023-04-25T12:20:53;14.57;;;13.80;;
66189;SDS011;52992;52.084;5.412;2023-04-25T12:23:27;16.07;;;14.97;;
66189;SDS011;52992;52.084;5.412;2023-04-25T12:25:55;16.00;;;14.90;;
66189;SDS011;52992;52.084;5.412;2023-04-25T12:28:23;16.00;;;14.90;;
66189;SDS011;52992;52.084;5.412;2023-04-25T12:33:25;14.93;;;13.93;;
66189;SDS011;52992;52.084;5.412;2023-04-25T12:35:53;15.17;;;14.23;;
66189;SDS011;52992;52.084;5.412;2023-04-25T12:40:49;15.63;;;14.40;;
66189;SDS011;52992;52.084;5.412;2023-04-25T12:43:16;14.37;;;13.77;;
66189;SDS011;52992;52.084;5.412;2023-04-25T12:45:47;15.00;;;14.30;;
66189;SDS011;52992;52.084;5.412;2023-04-25T12:48:21;14.70;;;13.80;;
66189;SDS011;52992;52.084;5.412;2023-04-25T12:50:49;15.33;;;14.43;;
66189;SDS011;52992;52.084;5.412;2023-04-25T12:53:17;14.63;;;13.73;;
66189;SDS011;52992;52.084;5.412;2023-04-25T12:55:48;14.97;;;13.93;;
66189;SDS011;52992;52.084;5.412;2023-04-25T12:58:15;14.43;;;13.83;;
66189;SDS011;52992;52.084;5.412;2023-04-25T13:00:44;14.97;;;14.10;;
66189;SDS011;52992;52.084;5.412;2023-04-25T13:03:11;15.00;;;14.30;;
66189;SDS011;52992;52.084;5.412;2023-04-25T13:05:58;14.33;;;13.53;;
66189;SDS011;52992;52.084;5.412;2023-04-25T13:08:25;14.90;;;14.00;;
66189;SDS011;52992;52.084;5.412;2023-04-25T13:10:52;14.67;;;13.90;;
66189;SDS011;52992;52.084;5.412;2023-04-25T13:13:19;15.27;;;14.27;;
66189;SDS011;52992;52.084;5.412;2023-04-25T13:15:46;15.17;;;14.27;;
66189;SDS011;52992;52.084;5.412;2023-04-25T13:18:14;15.97;;;15.00;;
66189;SDS011;52992;52.084;5.412;2023-04-25T13:20:41;16.20;;;15.20;;
66189;SDS011;52992;52.084;5.412;2023-04-25T13:23:08;15.27;;;14.47;;
66189;SDS011;52992;52.084;5.412;2023-04-25T13:25:34;15.10;;;14.30;;
66189;SDS011;52992;52.084;5.412;2023-04-25T13:28:01;15.67;;;14.77;;
66189;SDS011;52992;52.084;5.412;2023-04-25T13:30:29;14.57;;;13.60;;
66189;SDS011;52992;52.084;5.412;2023-04-25T13:32:56;15.73;;;14.50;;
66189;SDS011;52992;52.084;5.412;2023-04-25T13:35:23;14.57;;;13.97;;
66189;SDS011;52992;52.084;5.412;2023-04-25T13:37:50;15.67;;;14.70;;
66189;SDS011;52992;52.084;5.412;2023-04-25T13:40:17;15.40;;;14.60;;
66189;SDS011;52992;52.084;5.412;2023-04-25T13:42:44;14.97;;;14.20;;
66189;SDS011;52992;52.084;5.412;2023-04-25T13:45:11;14.27;;;13.33;;
66189;SDS011;52992;52.084;5.412;2023-04-25T13:47:38;14.57;;;13.83;;
66189;SDS011;52992;52.084;5.412;2023-04-25T13:50:05;14.90;;;13.90;;
66189;SDS011;52992;52.084;5.412;2023-04-25T13:52:33;15.37;;;14.27;;
66189;SDS011;52992;52.084;5.412;2023-04-25T13:55:00;15.20;;;14.20;;
66189;SDS011;52992;52.084;5.412;2023-04-25T13:57:33;15.43;;;14.63;;
66189;SDS011;52992;52.084;5.412;2023-04-25T14:00:00;15.10;;;14.40;;
66189;SDS011;52992;52.084;5.412;2023-04-25T14:02:31;15.83;;;14.90;;
66189;SDS011;52992;52.084;5.412;2023-04-25T14:04:58;14.93;;;14.23;;
66189;SDS011;52992;52.084;5.412;2023-04-25T14:07:25;15.80;;;14.87;;
66189;SDS011;52992;52.084;5.412;2023-04-25T14:09:52;15.47;;;14.30;;
66189;SDS011;52992;52.084;5.412;2023-04-25T14:12:19;15.23;;;14.33;;
66189;SDS011;52992;52.084;5.412;2023-04-25T14:14:46;14.90;;;14.07;;
66189;SDS011;52992;52.084;5.412;2023-04-25T14:17:13;15.37;;;14.57;;
66189;SDS011;52992;52.084;5.412;2023-04-25T14:19:40;15.70;;;14.70;;
66189;SDS011;52992;52.084;5.412;2023-04-25T14:22:11;15.30;;;14.23;;
66189;SDS011;52992;52.084;5.412;2023-04-25T14:24:38;16.57;;;15.43;;
66189;SDS011;52992;52.084;5.412;2023-04-25T14:27:05;15.37;;;14.37;;
66189;SDS011;52992;52.084;5.412;2023-04-25T14:29:32;15.40;;;14.50;;
66189;SDS011;52992;52.084;5.412;2023-04-25T14:31:59;14.60;;;13.80;;
66189;SDS011;52992;52.084;5.412;2023-04-25T14:34:26;15.33;;;14.17;;
66189;SDS011;52992;52.084;5.412;2023-04-25T14:36:53;14.90;;;14.03;;
66189;SDS011;52992;52.084;5.412;2023-04-25T14:39:20;14.53;;;13.93;;
66189;SDS011;52992;52.084;5.412;2023-04-25T14:41:47;14.73;;;13.93;;
66189;SDS011;52992;52.084;5.412;2023-04-25T14:44:13;16.13;;;14.97;;
66189;SDS011;52992;52.084;5.412;2023-04-25T14:46:41;16.27;;;15.00;;
66189;SDS011;52992;52.084;5.412;2023-04-25T14:49:08;15.30;;;14.00;;
66189;SDS011;52992;52.084;5.412;2023-04-25T14:51:35;14.83;;;14.00;;
66189;SDS011;52992;52.084;5.412;2023-04-25T14:54:02;15.17;;;13.90;;